Time;durP1;ratioP1;P1;durP2;ratioP2;P2;SDS_P1;SDS_P2;PMS_P1;PMS_P2;Temp;Humidity;BMP_temperature;BMP_pressure;BME280_temperature;BME280_humidity;BME280_pressure;Samples;Min_cycle;Max_cycle;Signal;HPM_P1;HPM_P2
2021/05/19 00:00:28;;;;;;;10.98;6.47;;;;;;;8.35;72.92;100344.59;8714296;33;20240;-72
2021/05/19 00:05:31;;;;;;;10.07;6.47;;;;;;;8.38;73.32;100344.34;8714807;33;20175;-72
2021/05/19 00:10:34;;;;;;;9.52;6.35;;;;;;;8.53;72.71;100347.78;8715558;33;20309;-73
2021/05/19 00:15:37;;;;;;;8.98;6.75;;;;;;;8.65;73.13;100346.03;8715539;33;21620;-72
2021/05/19 00:20:42;;;;;;;11.00;6.45;;;;;;;8.68;72.72;100339.59;8715771;33;20218;-72
2021/05/19 00:25:45;;;;;;;9.85;6.75;;;;;;;8.64;72.36;100348.81;8715584;33;20248;-73
2021/05/19 00:30:49;;;;;;;9.07;6.45;;;;;;;8.66;72.71;100344.19;8716410;33;20676;-73
2021/05/19 00:35:53;;;;;;;12.52;7.35;;;;;;;8.60;72.46;100346.34;8715035;33;20187;-73
2021/05/19 00:40:56;;;;;;;11.00;6.45;;;;;;;8.46;72.85;100348.34;8715992;33;20241;-73
2021/05/19 00:45:59;;;;;;;11.73;7.10;;;;;;;8.36;73.00;100350.78;8714763;33;20456;-73
2021/05/19 00:51:03;;;;;;;10.13;6.88;;;;;;;8.04;73.73;100350.44;8714899;33;20163;-73
2021/05/19 00:56:07;;;;;;;10.90;6.97;;;;;;;7.95;73.97;100349.25;8713065;33;20633;-73
2021/05/19 01:01:09;;;;;;;12.18;7.65;;;;;;;7.85;74.36;100345.53;8714662;33;20670;-73
2021/05/19 01:06:23;;;;;;;12.40;8.05;;;;;;;7.89;74.31;100342.50;8715178;33;20231;-73
2021/05/19 01:11:25;;;;;;;12.05;7.90;;;;;;;7.88;74.35;100350.66;8714997;33;20268;-72
2021/05/19 01:16:28;;;;;;;11.65;7.72;;;;;;;8.05;74.05;100352.13;8714434;33;21926;-73
2021/05/19 01:21:33;;;;;;;13.43;8.55;;;;;;;8.01;73.91;100350.63;8714678;33;20191;-73
2021/05/19 01:26:36;;;;;;;11.75;8.40;;;;;;;7.84;74.47;100341.13;8712725;33;20187;-73
2021/05/19 01:31:39;;;;;;;14.07;8.82;;;;;;;7.72;74.77;100351.72;8713558;33;20217;-73
2021/05/19 01:36:43;;;;;;;16.40;9.07;;;;;;;7.64;74.96;100351.41;8717704;33;20995;-72
2021/05/19 01:41:48;;;;;;;14.75;9.73;;;;;;;7.62;75.05;100345.28;8719317;33;20175;-73
2021/05/19 01:46:52;;;;;;;17.98;10.30;;;;;;;7.61;74.95;100348.09;8717649;33;20485;-73
2021/05/19 01:51:54;;;;;;;19.10;10.75;;;;;;;7.58;75.09;100341.13;8719386;33;20357;-73
2021/05/19 01:56:58;;;;;;;14.82;9.77;;;;;;;7.62;74.68;100344.44;8719229;33;20180;-73
2021/05/19 02:02:02;;;;;;;15.65;9.65;;;;;;;7.56;74.82;100344.88;8717602;33;20188;-73
2021/05/19 02:07:06;;;;;;;18.27;10.32;;;;;;;7.35;74.92;100349.88;8717415;33;20397;-73
2021/05/19 02:12:18;;;;;;;18.20;10.50;;;;;;;7.18;75.48;100348.34;8718035;33;20589;-73
2021/05/19 02:17:27;;;;;;;17.17;10.77;;;;;;;7.19;75.62;100350.91;8717374;33;20179;-73
2021/05/19 02:22:32;;;;;;;18.40;11.63;;;;;;;7.23;76.08;100359.56;8717330;33;20144;-73
2021/05/19 02:27:37;;;;;;;21.27;11.52;;;;;;;7.30;76.20;100362.72;8716472;33;20222;-73
2021/05/19 02:32:45;;;;;;;17.63;11.07;;;;;;;7.34;76.08;100358.84;8717069;33;20155;-73
2021/05/19 02:37:51;;;;;;;23.15;12.02;;;;;;;7.27;75.87;100364.63;8715574;33;20516;-72
2021/05/19 02:42:54;;;;;;;19.35;12.20;;;;;;;7.26;75.64;100359.38;8716179;33;20203;-73
2021/05/19 02:48:02;;;;;;;18.38;11.07;;;;;;;7.18;75.69;100359.88;8715508;33;21717;-73
2021/05/19 02:53:04;;;;;;;19.35;11.23;;;;;;;7.09;75.84;100360.50;8717738;33;20179;-73
2021/05/19 02:58:08;;;;;;;20.30;11.05;;;;;;;7.08;75.93;100360.63;8763238;33;20226;-73
2021/05/19 03:03:11;;;;;;;19.38;11.55;;;;;;;7.01;75.95;100357.47;8717375;33;20541;-72
2021/05/19 03:08:13;;;;;;;23.70;12.82;;;;;;;6.94;76.65;100359.72;8716784;33;20245;-73
2021/05/19 03:13:17;;;;;;;22.83;13.05;;;;;;;6.92;76.73;100360.78;8716903;33;20159;-73
2021/05/19 03:18:19;;;;;;;25.23;14.18;;;;;;;6.87;76.53;100362.84;8715799;33;20140;-73
2021/05/19 03:23:22;;;;;;;24.67;13.25;;;;;;;6.82;77.02;100361.34;8716273;33;20179;-72
2021/05/19 03:28:26;;;;;;;26.17;14.13;;;;;;;6.89;77.36;100360.97;8716349;33;20193;-72
2021/05/19 03:33:29;;;;;;;29.42;16.15;;;;;;;7.05;77.12;100348.31;8716735;33;20955;-72
2021/05/19 03:38:32;;;;;;;26.17;14.55;;;;;;;7.12;76.82;100360.28;8715606;33;20266;-72
2021/05/19 03:43:37;;;;;;;23.48;14.27;;;;;;;7.14;76.22;100363.72;8716081;33;20191;-72
2021/05/19 03:48:40;;;;;;;26.35;14.65;;;;;;;7.15;76.09;100378.78;8690357;33;20191;-72
2021/05/19 03:53:42;;;;;;;28.70;15.73;;;;;;;7.04;76.17;100367.97;8714612;33;20180;-72
2021/05/19 03:58:46;;;;;;;23.48;13.73;;;;;;;7.05;76.25;100367.03;8715083;33;20137;-72
2021/05/19 04:03:51;;;;;;;21.85;14.48;;;;;;;7.07;75.79;100375.78;8715661;33;20152;-72
2021/05/19 04:08:56;;;;;;;27.83;15.23;;;;;;;7.01;75.54;100371.69;8715024;33;20191;-72
2021/05/19 04:14:00;;;;;;;25.95;14.60;;;;;;;7.05;75.50;100383.91;8715783;33;20132;-72
2021/05/19 04:19:04;;;;;;;31.15;16.30;;;;;;;7.12;75.38;100394.16;8715151;33;20187;-73
2021/05/19 04:24:08;;;;;;;30.80;15.85;;;;;;;7.10;75.39;100404.94;8715009;33;20214;-72
2021/05/19 04:29:11;;;;;;;27.90;15.77;;;;;;;7.17;75.12;100408.94;8689454;33;20191;-72
2021/05/19 04:34:14;;;;;;;24.70;14.07;;;;;;;7.24;75.08;100409.38;8713992;33;20881;-72
2021/05/19 04:39:16;;;;;;;24.45;15.07;;;;;;;7.25;75.50;100411.94;8736269;33;21003;-72
2021/05/19 04:44:20;;;;;;;32.63;16.63;;;;;;;7.30;75.99;100414.31;8713794;33;20207;-72
2021/05/19 04:49:22;;;;;;;27.70;16.63;;;;;;;7.48;75.92;100413.06;8713256;33;20691;-72
2021/05/19 04:54:25;;;;;;;26.73;16.52;;;;;;;7.50;76.20;100415.66;8713181;33;20171;-72
2021/05/19 04:59:29;;;;;;;27.70;15.60;;;;;;;7.65;76.47;100421.75;8712681;33;20806;-72
2021/05/19 05:04:31;;;;;;;28.17;15.65;;;;;;;7.84;75.69;100427.56;8713118;33;20916;-72
2021/05/19 05:09:34;;;;;;;29.33;16.38;;;;;;;8.09;75.23;100431.19;8718260;33;21604;-72
2021/05/19 05:14:37;;;;;;;26.45;15.02;;;;;;;8.17;74.47;100437.75;8718506;33;20191;-72
2021/05/19 05:19:40;;;;;;;25.92;15.60;;;;;;;8.15;74.60;100438.81;8717992;33;20807;-72
2021/05/19 05:24:43;;;;;;;30.80;16.30;;;;;;;8.32;74.15;100432.28;8717253;33;20429;-72
2021/05/19 05:29:47;;;;;;;25.88;15.52;;;;;;;8.06;75.22;100442.97;8718284;33;20332;-72
2021/05/19 05:34:49;;;;;;;24.92;15.10;;;;;;;8.32;74.91;100448.34;8717785;33;20842;-72
2021/05/19 05:39:52;;;;;;;27.75;14.93;;;;;;;8.28;75.40;100449.50;8718124;33;20167;-72
2021/05/19 05:44:55;;;;;;;27.63;15.25;;;;;;;8.23;75.05;100459.66;8717169;33;20450;-72
2021/05/19 05:49:58;;;;;;;29.80;16.77;;;;;;;8.20;75.30;100471.47;8717351;33;20270;-72
2021/05/19 05:55:01;;;;;;;28.83;15.70;;;;;;;8.57;75.07;100467.06;8716568;33;20235;-72
2021/05/19 06:00:09;;;;;;;28.33;16.30;;;;;;;8.88;73.40;100469.38;8717019;33;20436;-72
2021/05/19 06:05:15;;;;;;;27.90;17.60;;;;;;;9.36;71.93;100472.94;8718218;33;20247;-72
2021/05/19 06:10:17;;;;;;;30.70;15.65;;;;;;;9.10;71.52;100476.69;8718112;33;20200;-72
2021/05/19 06:15:21;;;;;;;27.17;15.93;;;;;;;9.93;70.78;100482.94;8717147;33;20180;-72
2021/05/19 06:20:24;;;;;;;25.80;13.50;;;;;;;9.73;69.73;100473.69;8714692;33;20172;-72
2021/05/19 06:25:27;;;;;;;22.95;14.30;;;;;;;10.29;69.03;100475.69;8715017;33;20538;-72
2021/05/19 06:30:30;;;;;;;22.88;12.70;;;;;;;10.59;67.84;100471.56;8716568;33;20187;-72
2021/05/19 06:35:33;;;;;;;24.85;14.18;;;;;;;11.14;66.97;100475.19;8715734;33;20670;-72
2021/05/19 06:40:36;;;;;;;21.70;12.32;;;;;;;11.41;65.69;100479.25;8716835;33;20191;-72
2021/05/19 06:45:40;;;;;;;18.70;11.88;;;;;;;11.73;64.09;100469.34;8716019;33;20184;-72
2021/05/19 06:50:45;;;;;;;23.77;13.30;;;;;;;11.61;63.27;100474.91;8756733;33;20692;-72
2021/05/19 06:55:50;;;;;;;21.38;13.45;;;;;;;11.20;65.47;100473.84;8774257;33;20187;-72
2021/05/19 07:00:54;;;;;;;22.40;12.93;;;;;;;11.86;64.53;100469.16;8775042;33;20166;-72
2021/05/19 07:05:56;;;;;;;18.63;12.23;;;;;;;11.82;64.84;100474.91;8774478;33;20241;-72
2021/05/19 07:10:59;;;;;;;20.83;13.32;;;;;;;11.91;64.57;100472.31;8774952;33;20250;-72
2021/05/19 07:16:03;;;;;;;22.15;12.75;;;;;;;13.23;62.16;100481.44;8774371;33;20183;-72
2021/05/19 07:21:05;;;;;;;18.80;11.95;;;;;;;13.55;58.20;100483.06;8774361;33;20187;-72
2021/05/19 07:26:08;;;;;;;17.65;11.38;;;;;;;13.45;59.01;100481.22;8769150;33;20263;-72
2021/05/19 07:31:12;;;;;;;15.02;10.30;;;;;;;13.05;58.41;100483.94;8767993;33;20159;-72
2021/05/19 07:36:14;;;;;;;13.55;9.57;;;;;;;13.25;58.38;100476.78;8747094;33;20270;-72
2021/05/19 07:41:17;;;;;;;17.00;10.02;;;;;;;12.34;60.35;100484.81;8714788;33;20148;-72
2021/05/19 07:46:21;;;;;;;16.38;10.10;;;;;;;13.20;60.46;100490.66;8714188;33;20444;-72
2021/05/19 07:51:22;;;;;;;16.63;9.45;;;;;;;12.88;58.32;100490.00;8714810;33;20151;-72
2021/05/19 07:56:31;;;;;;;14.63;9.93;;;;;;;13.79;56.49;100480.78;8714275;33;20188;-72
2021/05/19 08:01:55;;;;;;;18.98;10.82;;;;;;;12.90;58.49;100491.56;8713604;33;21624;-72
2021/05/19 08:06:57;;;;;;;18.98;11.57;;;;;;;13.42;58.15;100488.75;8713751;33;20154;-72
2021/05/19 08:11:59;;;;;;;16.00;11.07;;;;;;;13.93;56.02;100483.06;8714477;33;20590;-72
2021/05/19 08:17:01;;;;;;;18.63;11.27;;;;;;;13.94;56.00;100479.34;8716824;33;20194;-72
2021/05/19 08:22:02;;;;;;;18.95;11.77;;;;;;;14.85;51.32;100480.69;8714991;33;20219;-72
2021/05/19 08:27:06;;;;;;;21.70;13.85;;;;;;;14.09;54.85;100476.19;8713554;33;20233;-72
2021/05/19 08:32:10;;;;;;;21.77;14.15;;;;;;;13.86;55.71;100470.28;8713258;33;21324;-72
2021/05/19 08:37:13;;;;;;;20.63;14.05;;;;;;;15.08;52.63;100465.75;8688772;33;21074;-72
2021/05/19 08:42:15;;;;;;;24.23;16.20;;;;;;;15.47;50.77;100458.25;8714109;33;20187;-72
2021/05/19 08:47:24;;;;;;;22.52;15.02;;;;;;;14.26;55.61;100463.78;8713171;33;20218;-72
2021/05/19 08:52:27;;;;;;;21.13;15.13;;;;;;;14.03;53.66;100455.19;8713669;33;20214;-72
2021/05/19 08:57:33;;;;;;;27.92;16.40;;;;;;;13.68;55.53;100462.88;8713245;33;20980;-72
2021/05/19 09:02:37;;;;;;;22.30;15.45;;;;;;;14.31;54.77;100465.06;8689489;33;20187;-72
2021/05/19 09:07:39;;;;;;;23.95;14.93;;;;;;;14.41;54.10;100461.53;8712764;33;20196;-73
2021/05/19 09:12:42;;;;;;;19.65;13.45;;;;;;;14.68;51.65;100460.72;8712607;33;20618;-72
2021/05/19 09:17:56;;;;;;;20.40;13.20;;;;;;;13.96;53.27;100452.22;8711734;33;20463;-72
2021/05/19 09:23:05;;;;;;;21.33;13.73;;;;;;;14.50;52.81;100457.91;8714450;33;20933;-74
2021/05/19 09:28:08;;;;;;;23.33;15.02;;;;;;;14.94;52.50;100460.84;8711042;33;20180;-74
2021/05/19 09:33:16;;;;;;;19.15;11.73;;;;;;;14.57;51.40;100465.28;8710348;33;20255;-74
2021/05/19 09:38:29;;;;;;;18.80;13.45;;;;;;;14.35;53.45;100473.75;8711009;33;20442;-74
2021/05/19 09:43:33;;;;;;;14.00;9.98;;;;;;;13.98;53.40;100458.31;8688391;33;20429;-74
2021/05/19 09:48:36;;;;;;;17.95;9.82;;;;;;;13.64;53.58;100458.78;8712912;33;20238;-74
2021/05/19 09:53:39;;;;;;;14.75;9.65;;;;;;;14.87;51.14;100455.19;8713647;33;21616;-73
2021/05/19 09:58:43;;;;;;;13.07;8.30;;;;;;;16.18;47.39;100442.91;8716973;33;20245;-74
2021/05/19 10:03:46;;;;;;;9.60;7.47;;;;;;;15.21;49.79;100450.00;8717567;33;20803;-73
2021/05/19 10:08:49;;;;;;;10.02;6.93;;;;;;;14.40;50.25;100455.28;8716810;33;20156;-73
2021/05/19 10:13:53;;;;;;;10.75;6.95;;;;;;;14.03;52.70;100455.19;8717265;33;20747;-74
2021/05/19 10:18:59;;;;;;;15.25;10.23;;;;;;;13.88;52.92;100450.25;8716249;33;20183;-74
2021/05/19 10:24:05;;;;;;;14.65;10.68;;;;;;;13.75;53.49;100451.53;8716302;33;20148;-73
2021/05/19 10:29:08;;;;;;;13.68;10.52;;;;;;;13.77;53.10;100454.91;8718367;33;20437;-74
2021/05/19 10:34:11;;;;;;;12.95;9.30;;;;;;;13.26;53.60;100460.44;8691730;33;20881;-74
2021/05/19 10:39:25;;;;;;;11.52;9.60;;;;;;;13.06;54.84;100439.81;8716843;33;20661;-73
2021/05/19 10:44:30;;;;;;;11.85;9.57;;;;;;;13.72;54.52;100444.56;8716032;33;20991;-74
2021/05/19 10:50:12;;;;;;;16.67;11.20;;;;;;;13.18;56.12;100429.75;8715666;33;20439;-74
2021/05/19 11:00:44;;;;;;;16.70;12.15;;;;;;;11.12;80.10;100436.81;8690838;33;20672;-73
2021/05/19 11:06:09;;;;;;;20.63;13.75;;;;;;;11.53;81.72;100416.38;8714646;33;20245;-72
2021/05/19 11:11:29;;;;;;;23.02;14.00;;;;;;;12.26;82.58;100424.47;8715916;33;20219;-74
2021/05/19 11:16:51;;;;;;;22.33;15.05;;;;;;;12.87;81.87;100416.38;8715624;33;20160;-74
2021/05/19 11:22:07;;;;;;;21.35;14.85;;;;;;;12.72;80.63;100409.66;8715954;33;20189;-71
2021/05/19 11:27:18;;;;;;;22.90;15.43;;;;;;;13.01;81.19;100404.34;8714168;33;20234;-73
2021/05/19 11:32:23;;;;;;;22.05;14.98;;;;;;;15.06;76.02;100397.44;8716013;33;20183;-73
2021/05/19 11:37:27;;;;;;;20.50;14.32;;;;;;;14.53;73.55;100404.41;8715439;33;20209;-72
2021/05/19 11:42:30;;;;;;;19.45;13.93;;;;;;;13.62;72.27;100403.22;8714571;33;20680;-72
2021/05/19 11:47:38;;;;;;;16.33;13.20;;;;;;;14.23;70.48;100407.34;8714417;33;20333;-72
2021/05/19 11:52:49;;;;;;;18.90;13.95;;;;;;;14.47;68.99;100391.50;8714130;33;20155;-72
2021/05/19 11:58:10;;;;;;;19.20;12.27;;;;;;;15.29;65.41;100391.56;8714087;33;20183;-70
2021/05/19 12:03:15;;;;;;;14.85;12.43;;;;;;;15.24;67.49;100394.72;8714339;33;20189;-70
2021/05/19 12:08:24;;;;;;;19.25;13.10;;;;;;;14.37;70.91;100405.03;8576498;33;20133;-70
2021/05/19 12:13:28;;;;;;;17.52;13.18;;;;;;;15.16;71.54;100391.94;8556193;33;20175;-70
2021/05/19 12:18:31;;;;;;;16.23;12.00;;;;;;;17.63;64.11;100385.72;8531067;33;20956;-69
2021/05/19 12:23:37;;;;;;;12.35;9.82;;;;;;;16.34;61.86;100386.09;8556390;33;20522;-70
2021/05/19 12:28:40;;;;;;;11.65;8.65;;;;;;;15.53;61.96;100389.09;8528123;33;20419;-69
2021/05/19 12:33:45;;;;;;;8.60;6.75;;;;;;;14.40;60.42;100378.72;8554563;33;20188;-69
2021/05/19 12:38:50;;;;;;;10.18;7.10;;;;;;;16.20;63.36;100375.84;8554865;33;20562;-70
2021/05/19 12:44:00;;;;;;;6.85;6.18;;;;;;;16.67;50.97;100369.13;8554363;33;20445;-71
2021/05/19 12:49:10;;;;;;;6.80;5.15;;;;;;;18.34;51.77;100370.50;8541544;33;20191;-71
2021/05/19 12:54:20;;;;;;;3.92;3.15;;;;;;;18.41;40.95;100361.66;8541369;33;20287;-70
2021/05/19 12:59:23;;;;;;;4.38;3.45;;;;;;;17.69;43.26;100359.78;8538730;33;20427;-70
2021/05/19 13:04:26;;;;;;;5.05;4.00;;;;;;;17.90;44.29;100360.06;8535912;33;20132;-71
2021/05/19 13:09:30;;;;;;;4.85;3.35;;;;;;;17.24;42.02;100348.41;8534929;33;20129;-72
2021/05/19 13:14:35;;;;;;;6.60;4.10;;;;;;;16.71;43.80;100359.66;8533712;33;20991;-71
2021/05/19 13:19:39;;;;;;;6.25;4.30;;;;;;;16.52;42.93;100361.63;8534864;33;20512;-71
2021/05/19 13:24:42;;;;;;;4.28;3.72;;;;;;;17.85;41.31;100357.03;8534840;33;20161;-71
2021/05/19 13:29:47;;;;;;;3.42;3.13;;;;;;;15.89;43.29;100353.81;8537800;33;20469;-72
2021/05/19 13:36:13;;;;;;;5.47;3.53;;;;;;;15.79;45.51;100367.44;8542462;33;20170;-71
2021/05/19 13:40:17;;;;;;;4.95;3.28;;;;;;;18.28;40.33;100373.94;8544776;33;20163;-72
2021/05/19 13:45:20;;;;;;;3.55;3.25;;;;;;;17.93;39.84;100370.59;8543905;33;20445;-71
2021/05/19 13:50:23;;;;;;;4.32;3.00;;;;;;;17.94;39.69;100341.56;8540990;33;21586;-72
2021/05/19 13:55:27;;;;;;;4.47;2.85;;;;;;;19.80;37.44;100369.78;8543237;33;21137;-72
2021/05/19 14:00:30;;;;;;;4.03;2.70;;;;;;;17.46;40.54;100352.31;8540371;33;20479;-72
2021/05/19 14:05:33;;;;;;;3.88;2.83;;;;;;;17.81;42.56;100355.69;8540342;33;20592;-72
2021/05/19 14:10:38;;;;;;;3.65;2.58;;;;;;;19.16;37.51;100352.94;8541420;33;21105;-72
2021/05/19 14:15:47;;;;;;;4.22;3.20;;;;;;;19.12;36.85;100344.28;8538877;33;20446;-72
2021/05/19 14:31:31;;;;;;;4.32;3.80;;;;;;;16.00;44.00;100353.53;8519638;33;20187;-71
2021/05/19 15:03:35;;;;;;;7.75;5.30;;;;;;;15.15;51.51;100444.34;8533909;33;20414;-72
2021/05/19 15:08:38;;;;;;;7.28;5.95;;;;;;;16.91;49.43;100430.75;8533965;33;20444;-72
2021/05/19 15:13:41;;;;;;;7.82;5.65;;;;;;;18.10;46.07;100424.94;8534921;33;20337;-72
2021/05/19 15:18:44;;;;;;;6.00;5.45;;;;;;;15.78;50.67;100435.34;8534943;33;21060;-72
2021/05/19 15:23:49;;;;;;;8.20;6.00;;;;;;;14.42;54.83;100457.81;8532080;33;20412;-72
2021/05/19 15:28:52;;;;;;;7.35;4.72;;;;;;;12.81;58.06;100466.28;8504504;33;20140;-72
2021/05/19 15:33:55;;;;;;;4.80;4.20;;;;;;;12.51;60.06;100466.31;8538645;33;20420;-71
2021/05/19 15:38:58;;;;;;;4.80;3.50;;;;;;;12.58;58.01;100465.63;8542026;33;20167;-72
2021/05/19 15:44:02;;;;;;;5.63;3.63;;;;;;;12.36;61.00;100463.97;8544811;33;20976;-72
2021/05/19 15:49:05;;;;;;;4.60;3.33;;;;;;;13.31;61.52;100451.06;8519716;33;21148;-72
2021/05/19 15:54:08;;;;;;;5.65;2.85;;;;;;;14.16;57.42;100448.47;8554912;33;20194;-72
2021/05/19 15:59:12;;;;;;;4.07;3.08;;;;;;;14.01;56.24;100449.06;8545158;33;20425;-72
2021/05/19 16:04:16;;;;;;;3.47;2.83;;;;;;;14.02;54.13;100446.25;8543858;33;20861;-72
2021/05/19 16:09:19;;;;;;;3.78;2.30;;;;;;;14.57;54.01;100459.88;8556386;33;20418;-72
2021/05/19 16:14:23;;;;;;;3.63;2.13;;;;;;;14.81;52.66;100461.22;8555936;33;20516;-72
2021/05/19 16:19:25;;;;;;;3.70;2.28;;;;;;;13.65;53.42;100470.41;8551448;33;20191;-72
2021/05/19 16:24:29;;;;;;;3.55;1.90;;;;;;;14.15;53.91;100475.63;8517286;33;21116;-72
2021/05/19 16:30:45;;;;;;;2.10;1.90;;;;;;;14.62;52.58;100481.09;8541289;33;20655;-72
2021/05/19 16:35:48;;;;;;;2.03;1.60;;;;;;;14.50;51.67;100476.84;8365404;34;20142;-72
2021/05/19 16:40:51;;;;;;;2.00;1.58;;;;;;;14.01;51.81;100479.63;8402685;33;20427;-72
2021/05/19 16:45:53;;;;;;;1.90;1.35;;;;;;;13.42;52.90;100481.50;8582863;33;20278;-72
2021/05/19 16:50:57;;;;;;;1.42;1.33;;;;;;;13.40;52.54;100485.31;8613371;33;21103;-72
2021/05/19 16:56:00;;;;;;;2.63;1.40;;;;;;;13.33;52.78;100486.84;8604573;33;20437;-72
2021/05/19 17:01:02;;;;;;;1.80;1.42;;;;;;;13.25;52.76;100501.88;8578480;33;20139;-73
2021/05/19 17:06:06;;;;;;;2.53;1.48;;;;;;;13.24;53.89;100510.09;8602152;33;20429;-72
2021/05/19 17:11:09;;;;;;;1.20;1.10;;;;;;;13.16;53.18;100508.09;8570951;33;20422;-72
2021/05/19 17:16:11;;;;;;;1.20;1.10;;;;;;;12.96;53.07;100509.03;8541722;33;20613;-72
2021/05/19 17:21:15;;;;;;;1.27;1.10;;;;;;;12.74;52.73;100507.41;8539748;33;21027;-72
2021/05/19 17:26:17;;;;;;;1.65;1.48;;;;;;;12.72;52.99;100514.75;8537865;33;20604;-71
2021/05/19 17:31:20;;;;;;;1.00;1.00;;;;;;;13.14;52.46;100515.50;8494518;33;20418;-71
2021/05/19 17:36:26;;;;;;;1.50;1.23;;;;;;;13.01;52.63;100518.44;8483532;33;20166;-71
2021/05/19 17:41:28;;;;;;;1.13;1.13;;;;;;;12.89;52.87;100524.94;8458804;33;20160;-71
2021/05/19 17:46:32;;;;;;;2.35;1.63;;;;;;;12.73;53.21;100538.06;8482411;33;21700;-71
2021/05/19 17:51:38;;;;;;;2.10;1.23;;;;;;;12.67;53.36;100538.56;8482738;33;20164;-71
2021/05/19 17:56:41;;;;;;;1.67;1.50;;;;;;;12.51;53.38;100533.69;8486320;33;20918;-71
2021/05/19 18:01:45;;;;;;;1.60;1.50;;;;;;;12.39;54.97;100540.97;8484688;33;21136;-71
2021/05/19 18:06:50;;;;;;;2.05;1.48;;;;;;;12.17;55.61;100548.16;8482741;33;20223;-71
2021/05/19 18:11:54;;;;;;;2.60;1.30;;;;;;;11.75;58.00;100549.09;8485055;33;20241;-71
2021/05/19 18:16:57;;;;;;;1.70;1.60;;;;;;;11.76;58.18;100548.97;8487601;33;21509;-71
2021/05/19 18:22:06;;;;;;;1.60;1.50;;;;;;;11.92;57.26;100548.53;8487935;33;20698;-71
2021/05/19 18:27:11;;;;;;;1.98;1.40;;;;;;;12.06;57.13;100553.59;8486821;33;20415;-71
2021/05/19 18:37:59;;;;;;;4.03;1.20;;;;;;;12.14;56.38;100558.34;8457620;30;20883;-75
2021/05/19 18:43:02;;;;;;;1.98;1.23;;;;;;;12.08;58.30;100565.09;8041270;35;20144;-75
2021/05/19 18:48:07;;;;;;;1.52;1.42;;;;;;;11.99;58.20;100573.97;8053843;30;20217;-71
2021/05/19 18:53:10;;;;;;;1.60;1.50;;;;;;;11.95;57.40;100561.72;8023354;35;20776;-71
2021/05/19 18:58:13;;;;;;;1.52;1.38;;;;;;;11.68;57.78;100568.47;8034688;35;20432;-70
2021/05/19 19:03:16;;;;;;;2.03;1.70;;;;;;;11.44;57.42;100571.31;7989204;36;21000;-70
2021/05/19 19:08:20;;;;;;;3.05;2.10;;;;;;;11.40;58.14;100561.78;7989012;36;20510;-70
2021/05/19 19:13:22;;;;;;;2.10;1.90;;;;;;;11.25;58.38;100566.59;7957992;36;20164;-71
2021/05/19 19:18:25;;;;;;;4.88;2.50;;;;;;;11.28;58.86;100571.72;7936104;35;20495;-70
2021/05/19 19:23:29;;;;;;;2.45;1.58;;;;;;;11.27;58.84;100574.50;7974367;36;20183;-71
2021/05/19 19:28:31;;;;;;;2.25;2.00;;;;;;;11.25;60.19;100582.72;7984618;35;20149;-71
2021/05/19 19:33:34;;;;;;;2.13;1.92;;;;;;;11.12;61.18;100591.88;7968259;36;20454;-70
2021/05/19 19:38:38;;;;;;;3.75;2.00;;;;;;;11.10;61.21;100591.97;7963852;35;20633;-70
2021/05/19 19:43:41;;;;;;;4.53;2.40;;;;;;;11.05;61.76;100591.50;7970901;36;20157;-71
2021/05/19 19:48:45;;;;;;;3.50;2.10;;;;;;;11.15;62.10;100595.19;7938498;36;20468;-71
2021/05/19 19:53:49;;;;;;;2.47;2.20;;;;;;;11.14;61.95;100595.31;7948760;36;20240;-70
2021/05/19 19:58:52;;;;;;;3.13;2.33;;;;;;;11.15;62.48;100595.19;7947582;36;20462;-70
2021/05/19 20:03:55;;;;;;;3.22;2.72;;;;;;;11.04;62.09;100605.91;7939670;36;20531;-71
2021/05/19 20:08:58;;;;;;;3.00;2.38;;;;;;;10.74;63.47;100607.34;7940224;36;20157;-71
2021/05/19 20:14:01;;;;;;;3.60;2.50;;;;;;;10.35;64.15;100612.16;7918170;36;20513;-71
2021/05/19 20:19:04;;;;;;;3.47;2.63;;;;;;;10.26;64.23;100612.88;7939432;36;20206;-71
2021/05/19 20:24:10;;;;;;;3.45;2.67;;;;;;;10.26;64.90;100614.69;7938849;36;20456;-71
2021/05/19 20:29:12;;;;;;;4.55;3.50;;;;;;;10.18;65.12;100617.97;7937473;36;20150;-71
2021/05/19 20:34:18;;;;;;;6.30;5.07;;;;;;;10.15;65.46;100623.56;7934309;36;21030;-71
2021/05/19 20:39:24;;;;;;;6.35;5.65;;;;;;;10.09;66.14;100624.00;7929833;36;20726;-71
2021/05/19 20:44:26;;;;;;;7.53;6.15;;;;;;;10.06;65.93;100643.03;7913069;36;20199;-71
2021/05/19 20:49:29;;;;;;;8.70;5.75;;;;;;;10.00;66.26;100647.03;7947676;36;20772;-71
2021/05/19 20:54:33;;;;;;;6.20;2.97;;;;;;;9.83;66.68;100650.09;7963513;35;21122;-72
2021/05/19 20:59:35;;;;;;;5.68;3.10;;;;;;;9.91;66.94;100647.72;7975127;35;20367;-71
2021/05/19 21:04:38;;;;;;;4.93;3.17;;;;;;;10.02;66.76;100653.16;7975014;35;21207;-72
2021/05/19 21:09:41;;;;;;;6.35;3.70;;;;;;;10.09;66.68;100642.78;7964821;35;20618;-71
2021/05/19 21:14:44;;;;;;;7.85;4.50;;;;;;;10.13;66.17;100645.16;7969854;35;20465;-71
2021/05/19 21:19:47;;;;;;;4.68;3.95;;;;;;;10.22;65.98;100646.28;7973483;35;20444;-71
2021/05/19 21:24:50;;;;;;;7.65;3.47;;;;;;;10.25;65.92;100646.03;7982394;35;20779;-71
2021/05/19 21:29:53;;;;;;;4.25;3.58;;;;;;;10.16;66.20;100650.28;8001174;35;20485;-71
2021/05/19 21:34:56;;;;;;;5.68;3.83;;;;;;;10.16;66.10;100652.97;7960665;35;20283;-71
2021/05/19 21:39:59;;;;;;;4.60;3.00;;;;;;;9.94;67.04;100660.91;7952268;36;20165;-71
2021/05/19 21:45:02;;;;;;;5.28;2.88;;;;;;;9.64;69.45;100661.31;7951609;36;20509;-71
2021/05/19 21:50:06;;;;;;;6.82;3.50;;;;;;;9.50;69.15;100665.00;7963620;36;21089;-71
2021/05/19 21:55:12;;;;;;;5.40;3.70;;;;;;;9.33;68.78;100663.53;7957119;36;20286;-71
2021/05/19 22:00:39;;;;;;;4.97;3.90;;;;;;;9.26;69.21;100670.28;7958237;36;21065;-71
2021/05/19 22:05:43;;;;;;;5.80;4.15;;;;;;;9.21;69.65;100669.75;7961632;36;20673;-71
2021/05/19 22:10:50;;;;;;;5.10;3.37;;;;;;;9.18;70.02;100670.81;7970176;36;20904;-71
2021/05/19 22:15:53;;;;;;;5.05;3.78;;;;;;;9.25;69.51;100676.63;7952476;36;21248;-71
2021/05/19 22:21:23;;;;;;;6.10;4.03;;;;;;;9.20;70.47;100674.25;7969409;36;20567;-71
2021/05/19 22:26:26;;;;;;;7.03;4.25;;;;;;;9.24;70.59;100669.50;7970366;36;20591;-71
2021/05/19 22:31:31;;;;;;;4.40;3.95;;;;;;;9.25;70.85;100673.94;7969522;35;20493;-71
2021/05/19 22:36:34;;;;;;;7.85;3.60;;;;;;;9.24;70.72;100674.88;7969358;36;20560;-71
2021/05/19 22:41:38;;;;;;;5.15;3.97;;;;;;;9.11;71.19;100682.09;7973804;35;21202;-71
2021/05/19 22:46:42;;;;;;;8.93;4.80;;;;;;;9.08;71.42;100679.59;7963934;36;20240;-71
2021/05/19 22:51:45;;;;;;;6.43;4.60;;;;;;;9.06;71.69;100690.44;7973141;36;20318;-71
2021/05/19 22:56:48;;;;;;;7.45;5.20;;;;;;;9.12;71.59;100689.16;7969356;36;20164;-71
2021/05/19 23:01:51;;;;;;;8.43;5.13;;;;;;;9.04;71.63;100685.19;7968847;36;20557;-71
2021/05/19 23:06:54;;;;;;;9.65;5.43;;;;;;;9.13;71.57;100685.50;7967033;36;22284;-71
2021/05/19 23:11:57;;;;;;;10.27;5.00;;;;;;;9.17;71.53;100681.66;7966183;36;20173;-71
2021/05/19 23:17:00;;;;;;;7.47;5.22;;;;;;;9.25;71.44;100692.69;7966733;36;20463;-71
2021/05/19 23:22:02;;;;;;;9.05;5.32;;;;;;;9.20;71.67;100694.84;7968936;36;20232;-71
2021/05/19 23:27:06;;;;;;;7.18;4.82;;;;;;;9.29;71.67;100688.81;7970989;36;20172;-72
2021/05/19 23:32:09;;;;;;;8.95;5.55;;;;;;;9.27;71.33;100691.63;7973421;36;20451;-72
2021/05/19 23:37:12;;;;;;;10.52;6.18;;;;;;;9.42;71.42;100692.34;7969520;36;20635;-71
2021/05/19 23:42:16;;;;;;;8.55;5.70;;;;;;;9.49;70.73;100696.31;7965984;36;20584;-71
2021/05/19 23:47:19;;;;;;;9.70;7.03;;;;;;;9.31;70.88;100697.63;7966322;36;20196;-71
2021/05/19 23:52:22;;;;;;;11.13;6.78;;;;;;;9.33;70.91;100698.38;7957693;36;20458;-71
2021/05/19 23:57:26;;;;;;;10.02;6.70;;;;;;;9.22;71.52;100712.53;7952996;36;20177;-71
